createdAt,value
2022-08-24T00:12:18.316Z,47.5
2022-08-24T00:27:28.048Z,47.7
2022-08-24T00:42:37.486Z,47.9
2022-08-24T00:57:50.001Z,48.1
2022-08-24T01:13:01.896Z,48.3
2022-08-24T01:28:11.213Z,48.4
2022-08-24T01:43:20.754Z,48.2
2022-08-24T01:58:30.444Z,48.7
2022-08-24T02:13:40.057Z,49.3
2022-08-24T02:28:49.243Z,49.1
2022-08-24T02:43:58.698Z,49.4
2022-08-24T02:59:08.407Z,49.6
2022-08-24T03:14:17.606Z,49.8
2022-08-24T03:29:33.954Z,50.1
2022-08-24T03:44:43.897Z,50.4
2022-08-24T03:59:53.444Z,50.5
2022-08-24T04:15:03.037Z,50.7
2022-08-24T04:30:14.884Z,50.8
2022-08-24T04:45:24.997Z,51.1
2022-08-24T05:00:34.735Z,51.2
2022-08-24T05:15:44.675Z,51.3
2022-08-24T05:30:54.506Z,51.3
2022-08-24T05:46:04.327Z,51.3
2022-08-24T06:01:16.101Z,51.3
2022-08-24T06:16:26.535Z,51.1
2022-08-24T06:31:43.078Z,51.3
2022-08-24T06:46:53.880Z,51.3
2022-08-24T07:02:03.897Z,51.3
2022-08-24T07:17:16.136Z,51.2
2022-08-24T07:32:25.920Z,51.1
2022-08-24T08:03:14.554Z,50.8
2022-08-24T08:18:24.442Z,50.7
2022-08-24T08:33:34.261Z,50.5
2022-08-24T08:48:43.960Z,50.3
2022-08-24T09:03:56.302Z,50
2022-08-24T09:19:05.889Z,49.8
2022-08-24T09:34:19.571Z,49.4
2022-08-24T09:49:29.850Z,49
2022-08-24T10:04:40.183Z,48.8
2022-08-24T10:19:50.052Z,48.4
2022-08-24T10:34:59.808Z,48.2
2022-08-24T10:50:09.321Z,48
2022-08-24T11:05:18.894Z,47.9
2022-08-24T11:20:29.142Z,47.5
2022-08-24T11:35:38.403Z,47.1
2022-08-24T11:50:48.426Z,46.6
2022-08-24T12:05:58.215Z,45.9
2022-08-24T12:21:13.109Z,42.7
2022-08-24T12:36:26.002Z,43
2022-08-24T12:51:35.690Z,43.6
2022-08-24T13:06:45.874Z,42.3
2022-08-24T13:21:56.283Z,41.7
2022-08-24T13:37:12.755Z,40.8
2022-08-24T13:52:23.388Z,40.3
2022-08-24T14:07:33.659Z,40.1
2022-08-24T14:22:49.161Z,39.5
2022-08-24T14:37:59.842Z,38.8
2022-08-24T14:53:09.011Z,39
2022-08-24T15:08:19.659Z,38.3
2022-08-24T15:23:29.691Z,37.9
2022-08-24T15:38:42.552Z,37.5
2022-08-24T15:53:50.310Z,40
2022-08-24T16:08:58.773Z,41.2
2022-08-24T16:24:07.229Z,41.8
2022-08-24T16:39:17.497Z,42
2022-08-24T16:54:26.351Z,42.2
2022-08-24T17:09:35.530Z,42.3
2022-08-24T17:24:45.348Z,42.4
2022-08-24T17:39:57.762Z,42.5
2022-08-24T17:55:07.187Z,42.6
2022-08-24T18:10:17.317Z,42.7
2022-08-24T18:25:27.567Z,42.8
2022-08-24T18:40:36.946Z,43
2022-08-24T18:55:46.379Z,43.2
2022-08-24T19:10:55.475Z,43.3
2022-08-24T19:26:05.094Z,43.9
2022-08-24T19:41:17.912Z,43.8
2022-08-24T19:56:30.393Z,44.8
2022-08-24T20:11:39.906Z,44.2
2022-08-24T20:26:48.997Z,44.4
2022-08-24T20:41:58.533Z,44.7
2022-08-24T20:57:07.855Z,44.9
2022-08-24T21:12:18.319Z,45.2
2022-08-24T21:27:27.191Z,45.4
2022-08-24T21:42:38.219Z,45.7
2022-08-24T21:57:47.887Z,45.9
2022-08-24T22:13:05.032Z,46.2
2022-08-24T22:28:14.911Z,46.4
2022-08-24T22:43:25.591Z,46.7
2022-08-24T22:58:34.579Z,46.9
2022-08-24T23:13:44.099Z,47.2
2022-08-24T23:28:53.153Z,47.5
2022-08-24T23:44:02.528Z,47.7
2022-08-24T23:59:11.803Z,48
